createdAt,value
2016-08-02T00:00:20.257Z,0
2016-08-02T00:01:05.360Z,0
2016-08-02T00:02:05.391Z,0
2016-08-02T00:03:05.415Z,0
2016-08-02T00:04:05.427Z,0
2016-08-02T00:05:05.469Z,0
2016-08-02T00:06:06.178Z,0
2016-08-02T00:07:05.503Z,0
2016-08-02T00:08:20.464Z,0
2016-08-02T00:09:20.487Z,0
2016-08-02T00:10:20.537Z,0
2016-08-02T00:11:05.617Z,0
2016-08-02T00:12:35.536Z,0
2016-08-02T00:13:20.587Z,0
2016-08-02T00:14:05.693Z,0
2016-08-02T00:15:05.715Z,0
2016-08-02T00:16:05.740Z,0
2016-08-02T00:17:05.759Z,0
2016-08-02T00:18:05.897Z,0
2016-08-02T00:19:05.814Z,0
2016-08-02T00:20:05.855Z,0
2016-08-02T00:21:05.869Z,0
2016-08-02T00:22:05.887Z,0
2016-08-02T00:23:20.850Z,0
2016-08-02T00:24:05.946Z,0
2016-08-02T00:25:20.897Z,0
2016-08-02T00:26:20.922Z,0
2016-08-02T00:27:06.031Z,0
2016-08-02T00:28:06.049Z,0
2016-08-02T00:30:06.155Z,0
2016-08-02T00:31:06.143Z,0
2016-08-02T00:32:06.146Z,0
2016-08-02T00:33:21.100Z,0
2016-08-02T00:34:06.201Z,0
2016-08-02T00:35:21.149Z,0
2016-08-02T00:36:06.265Z,0
2016-08-02T00:37:06.299Z,0
2016-08-02T00:38:06.311Z,0
2016-08-02T00:39:06.333Z,0
2016-08-02T00:40:06.359Z,0
2016-08-02T00:41:21.298Z,0
2016-08-02T00:42:06.415Z,0
2016-08-02T00:43:06.534Z,0
2016-08-02T00:44:06.457Z,0
2016-08-02T00:45:21.421Z,0
2016-08-02T00:46:07.222Z,0
2016-08-02T00:47:21.459Z,0
2016-08-02T00:48:06.562Z,0
2016-08-02T00:49:21.508Z,0
2016-08-02T00:50:06.611Z,0
2016-08-02T00:51:06.634Z,0
2016-08-02T00:52:06.657Z,0
2016-08-02T00:53:06.693Z,0
2016-08-02T00:54:06.724Z,0
2016-08-02T00:55:06.745Z,0
2016-08-02T00:56:07.463Z,0
2016-08-02T00:57:06.792Z,0
2016-08-02T00:58:06.814Z,0
2016-08-02T00:59:07.547Z,0
2016-08-02T01:00:21.786Z,0
2016-08-02T01:01:06.897Z,0
2016-08-02T01:02:06.913Z,0
2016-08-02T01:03:06.953Z,0
2016-08-02T01:04:06.969Z,0
2016-08-02T01:05:06.994Z,0
2016-08-02T01:07:07.034Z,0
2016-08-02T01:08:07.067Z,0
2016-08-02T01:09:22.019Z,0
2016-08-02T01:10:07.119Z,0
2016-08-02T01:11:07.139Z,0
2016-08-02T01:12:22.095Z,0
2016-08-02T01:13:07.201Z,0
2016-08-02T01:14:07.217Z,0
2016-08-02T01:15:07.248Z,0
2016-08-02T01:16:07.270Z,0
2016-08-02T01:17:07.298Z,0
2016-08-02T01:18:07.426Z,0
2016-08-02T01:19:08.053Z,0
2016-08-02T01:20:07.386Z,0
2016-08-02T01:21:07.412Z,0
2016-08-02T01:22:22.357Z,0
2016-08-02T01:23:07.444Z,0
2016-08-02T01:24:07.471Z,0
2016-08-02T01:25:07.508Z,0
2016-08-02T01:26:07.537Z,0
2016-08-02T01:27:07.552Z,0
2016-08-02T01:28:07.572Z,0
2016-08-02T01:29:07.602Z,0
2016-08-02T01:30:07.625Z,0
2016-08-02T01:31:07.642Z,0
2016-08-02T01:32:22.592Z,0
2016-08-02T01:33:07.701Z,0
2016-08-02T01:34:07.723Z,0
2016-08-02T01:35:22.673Z,0
2016-08-02T01:36:07.775Z,0
2016-08-02T01:37:07.804Z,0
2016-08-02T01:38:07.822Z,0
2016-08-02T01:39:07.858Z,0
2016-08-02T01:40:07.878Z,0
2016-08-02T01:41:07.894Z,0
2016-08-02T01:42:07.934Z,0
2016-08-02T01:43:07.948Z,0
2016-08-02T01:44:08.021Z,0
2016-08-02T01:45:22.921Z,0
2016-08-02T01:47:08.059Z,0
2016-08-02T01:48:22.994Z,0
2016-08-02T01:49:08.103Z,0
2016-08-02T01:50:08.125Z,0
2016-08-02T01:51:08.145Z,0
2016-08-02T01:52:08.174Z,0
2016-08-02T01:53:08.197Z,0
2016-08-02T01:54:08.220Z,0
2016-08-02T01:55:08.251Z,0
2016-08-02T01:56:08.271Z,0
2016-08-02T01:57:23.246Z,0
2016-08-02T01:58:08.331Z,0
2016-08-02T01:59:08.361Z,0
2016-08-02T02:00:23.302Z,0
2016-08-02T02:01:23.323Z,0
2016-08-02T02:02:08.419Z,0
2016-08-02T02:03:08.450Z,0
2016-08-02T02:04:23.391Z,0
2016-08-02T02:05:08.502Z,0
2016-08-02T02:06:08.520Z,0
2016-08-02T02:07:08.551Z,0
2016-08-02T02:08:08.579Z,0
2016-08-02T02:09:08.607Z,0
2016-08-02T02:10:23.547Z,0
2016-08-02T02:11:08.649Z,0
2016-08-02T02:12:08.671Z,0
2016-08-02T02:13:08.697Z,0
2016-08-02T02:14:08.728Z,0
2016-08-02T02:15:08.746Z,0
2016-08-02T02:16:08.768Z,0
2016-08-02T02:17:23.720Z,0
2016-08-02T02:18:08.822Z,0
2016-08-02T02:19:08.848Z,0
2016-08-02T02:20:23.853Z,0
2016-08-02T02:21:08.893Z,0
2016-08-02T02:22:08.928Z,0
2016-08-02T02:23:08.996Z,0
2016-08-02T02:24:08.989Z,0
2016-08-02T02:25:09.012Z,0
2016-08-02T02:26:09.025Z,0
2016-08-02T02:28:09.091Z,0
2016-08-02T02:29:09.095Z,0
2016-08-02T02:31:09.156Z,0
2016-08-02T02:32:09.169Z,0
2016-08-02T02:33:09.200Z,0
2016-08-02T02:34:09.232Z,0
2016-08-02T02:36:09.275Z,0
2016-08-02T02:37:24.233Z,0
2016-08-02T02:38:09.323Z,0
2016-08-02T02:40:24.299Z,0
2016-08-02T02:41:09.400Z,0
2016-08-02T02:42:09.422Z,0
2016-08-02T02:43:09.467Z,0
2016-08-02T02:44:24.456Z,0
2016-08-02T02:45:09.500Z,0
2016-08-02T02:46:09.517Z,0
2016-08-02T02:47:09.551Z,0
2016-08-02T02:49:09.600Z,0
2016-08-02T02:50:09.630Z,0
2016-08-02T02:51:09.649Z,0
2016-08-02T02:52:09.670Z,0
2016-08-02T02:53:09.695Z,0
2016-08-02T02:54:25.474Z,0
2016-08-02T02:55:09.753Z,0
2016-08-02T02:56:09.774Z,0
2016-08-02T02:57:09.811Z,0
2016-08-02T02:58:24.741Z,0
2016-08-02T02:59:09.847Z,0
2016-08-02T03:00:09.878Z,0
2016-08-02T03:01:09.889Z,0
2016-08-02T03:02:09.916Z,0
2016-08-02T03:03:09.951Z,0
2016-08-02T03:04:09.973Z,0
2016-08-02T03:05:09.993Z,0
2016-08-02T03:06:10.716Z,0
2016-08-02T03:07:24.964Z,0
2016-08-02T03:08:10.070Z,0
2016-08-02T03:09:11.739Z,0
2016-08-02T03:10:10.120Z,0
2016-08-02T03:11:25.065Z,0
2016-08-02T03:12:10.170Z,0
2016-08-02T03:13:25.799Z,0
2016-08-02T03:14:10.220Z,0
2016-08-02T03:15:10.234Z,0
2016-08-02T03:16:10.262Z,0
2016-08-02T03:17:10.299Z,0
2016-08-02T03:18:10.308Z,0
2016-08-02T03:19:25.257Z,0
2016-08-02T03:20:10.370Z,0
2016-08-02T03:21:25.357Z,0
2016-08-02T03:22:25.331Z,0
2016-08-02T03:23:25.360Z,5
2016-08-02T03:24:10.464Z,5
2016-08-02T03:25:10.486Z,5
2016-08-02T03:26:10.503Z,5
2016-08-02T03:27:10.531Z,5
2016-08-02T03:28:10.557Z,5
2016-08-02T03:29:10.581Z,5
2016-08-02T03:30:10.604Z,5
2016-08-02T03:31:26.256Z,5
2016-08-02T03:32:10.666Z,5
2016-08-02T03:33:10.679Z,10
2016-08-02T03:34:10.699Z,10
2016-08-02T03:35:10.732Z,10
2016-08-02T03:36:10.808Z,10
2016-08-02T03:37:25.751Z,10
2016-08-02T03:38:10.802Z,10
2016-08-02T03:39:41.494Z,15
2016-08-02T03:40:25.770Z,15
2016-08-02T03:41:10.874Z,15
2016-08-02T03:42:10.904Z,15
2016-08-02T03:43:10.924Z,15
2016-08-02T03:44:10.954Z,20
2016-08-02T03:45:10.993Z,20
2016-08-02T03:46:11.004Z,20
2016-08-02T03:47:11.070Z,20
2016-08-02T03:48:25.985Z,25
2016-08-02T03:50:26.017Z,25
2016-08-02T03:51:26.043Z,25
2016-08-02T03:52:11.146Z,30
2016-08-02T03:53:11.178Z,30
2016-08-02T03:54:11.212Z,30
2016-08-02T03:55:26.144Z,35
2016-08-02T03:56:11.248Z,35
2016-08-02T03:57:11.270Z,35
2016-08-02T03:58:11.309Z,40
2016-08-02T03:59:11.323Z,40
2016-08-02T04:00:11.343Z,40
2016-08-02T04:01:11.367Z,45
2016-08-02T04:02:11.393Z,45
2016-08-02T04:03:11.421Z,45
2016-08-02T04:04:11.452Z,50
2016-08-02T04:05:11.462Z,50
2016-08-02T04:06:11.497Z,50
2016-08-02T04:07:26.440Z,55
2016-08-02T04:08:11.538Z,60
2016-08-02T04:09:11.566Z,60
2016-08-02T04:10:26.518Z,65
2016-08-02T04:11:26.537Z,70
2016-08-02T04:12:11.650Z,70
2016-08-02T04:13:11.662Z,70
2016-08-02T04:15:26.638Z,75
2016-08-02T04:16:11.736Z,75
2016-08-02T04:17:12.474Z,80
2016-08-02T04:18:26.708Z,80
2016-08-02T04:19:11.814Z,80
2016-08-02T04:21:11.858Z,80
2016-08-02T04:22:26.820Z,85
2016-08-02T04:23:26.837Z,85
2016-08-02T04:24:11.939Z,85
2016-08-02T04:25:11.976Z,90
2016-08-02T04:26:12.005Z,100
2016-08-02T04:27:41.855Z,110
2016-08-02T04:28:12.034Z,115
2016-08-02T04:29:12.062Z,120
2016-08-02T04:30:27.009Z,125
2016-08-02T04:31:12.106Z,130
2016-08-02T04:32:12.130Z,135
2016-08-02T04:33:27.080Z,150
2016-08-02T04:34:12.187Z,155
2016-08-02T04:35:27.134Z,160
2016-08-02T04:36:12.251Z,165
2016-08-02T04:37:27.194Z,165
2016-08-02T04:38:12.286Z,165
2016-08-02T04:40:12.338Z,165
2016-08-02T04:42:27.319Z,140
2016-08-02T04:43:12.418Z,130
2016-08-02T04:45:12.451Z,125
2016-08-02T04:46:12.533Z,130
2016-08-02T04:47:12.506Z,130
2016-08-02T04:48:12.581Z,135
2016-08-02T04:49:12.557Z,135
2016-08-02T04:50:12.586Z,135
2016-08-02T04:51:12.623Z,135
2016-08-02T04:53:12.658Z,145
2016-08-02T04:54:12.688Z,150
2016-08-02T04:55:27.634Z,160
2016-08-02T04:56:12.733Z,170
2016-08-02T04:57:27.690Z,195
2016-08-02T04:58:27.711Z,200
2016-08-02T04:59:12.808Z,370
2016-08-02T05:00:12.842Z,880
2016-08-02T05:01:12.879Z,890
2016-08-02T05:02:12.914Z,900
2016-08-02T05:03:12.918Z,920
2016-08-02T05:04:12.946Z,960
2016-08-02T05:05:12.966Z,975
2016-08-02T05:06:12.999Z,990
2016-08-02T05:07:13.025Z,1005
2016-08-02T05:08:13.053Z,1005
2016-08-02T05:09:13.084Z,985
2016-08-02T05:10:28.040Z,1045
2016-08-02T05:12:13.171Z,1025
2016-08-02T05:13:28.120Z,1045
2016-08-02T05:14:43.073Z,1060
2016-08-02T05:15:13.255Z,1070
2016-08-02T05:16:13.282Z,1090
2016-08-02T05:17:13.313Z,1120
2016-08-02T05:18:13.354Z,1105
2016-08-02T05:19:13.369Z,1130
2016-08-02T05:21:13.437Z,1200
2016-08-02T05:22:13.460Z,1195
2016-08-02T05:23:13.494Z,1135
2016-08-02T05:24:13.526Z,1085
2016-08-02T05:25:13.559Z,1040
2016-08-02T05:26:28.515Z,270
2016-08-02T05:27:28.550Z,265
2016-08-02T05:29:13.696Z,230
2016-08-02T05:30:28.652Z,235
2016-08-02T05:31:13.767Z,240
2016-08-02T05:32:13.803Z,235
2016-08-02T05:33:13.825Z,215
2016-08-02T05:34:13.854Z,215
2016-08-02T05:35:28.810Z,215
2016-08-02T05:36:13.910Z,225
2016-08-02T05:37:13.947Z,215
2016-08-02T05:38:13.976Z,240
2016-08-02T05:39:14.055Z,340
2016-08-02T05:40:28.962Z,525
2016-08-02T05:41:14.061Z,505
2016-08-02T05:42:14.088Z,585
2016-08-02T05:43:29.049Z,1205
2016-08-02T05:44:14.157Z,1185
2016-08-02T05:45:29.118Z,1155
2016-08-02T05:47:14.246Z,650
2016-08-02T05:48:14.331Z,625
2016-08-02T05:49:14.318Z,635
2016-08-02T05:50:14.345Z,655
2016-08-02T05:51:14.371Z,555
2016-08-02T05:52:14.419Z,610
2016-08-02T05:53:29.369Z,790
2016-08-02T05:54:14.470Z,970
2016-08-02T05:55:14.507Z,1180
2016-08-02T05:56:14.536Z,730
2016-08-02T05:57:14.569Z,610
2016-08-02T05:58:29.532Z,605
2016-08-02T05:59:29.555Z,935
2016-08-02T06:01:29.630Z,1130
2016-08-02T06:02:14.740Z,1135
2016-08-02T06:03:14.763Z,1125
2016-08-02T06:04:29.720Z,1095
2016-08-02T06:05:14.828Z,1150
2016-08-02T06:06:14.863Z,1125
2016-08-02T06:07:14.897Z,1040
2016-08-02T06:08:14.928Z,850
2016-08-02T06:09:14.955Z,1140
2016-08-02T06:10:15.005Z,1040
2016-08-02T06:11:15.031Z,1045
2016-08-02T06:12:29.984Z,985
2016-08-02T06:13:15.099Z,945
2016-08-02T06:14:15.130Z,860
2016-08-02T06:15:15.163Z,900
2016-08-02T06:16:15.196Z,755
2016-08-02T06:17:30.156Z,455
2016-08-02T06:18:15.266Z,325
2016-08-02T06:19:15.298Z,285
2016-08-02T06:20:15.327Z,265
2016-08-02T06:21:15.367Z,245
2016-08-02T06:22:15.397Z,230
2016-08-02T06:23:30.364Z,205
2016-08-02T06:25:15.501Z,175
2016-08-02T06:26:15.525Z,165
2016-08-02T06:27:15.578Z,155
2016-08-02T06:28:15.610Z,150
2016-08-02T06:29:15.622Z,150
2016-08-02T06:31:15.690Z,150
2016-08-02T06:32:15.725Z,145
2016-08-02T06:33:30.683Z,120
2016-08-02T06:34:15.796Z,115
2016-08-02T06:35:15.830Z,105
2016-08-02T06:36:15.846Z,100
2016-08-02T06:37:15.882Z,100
2016-08-02T06:38:15.906Z,100
2016-08-02T06:39:16.648Z,100
2016-08-02T06:40:30.896Z,100
2016-08-02T06:41:16.013Z,105
2016-08-02T06:42:16.057Z,115
2016-08-02T06:43:16.065Z,120
2016-08-02T06:44:16.102Z,135
2016-08-02T06:45:31.050Z,140
2016-08-02T06:46:16.156Z,145
2016-08-02T06:47:16.185Z,155
2016-08-02T06:48:16.272Z,165
2016-08-02T06:49:31.169Z,175
2016-08-02T06:50:16.329Z,180
2016-08-02T06:51:16.305Z,185
2016-08-02T06:52:16.343Z,190
2016-08-02T06:53:16.367Z,195
2016-08-02T06:54:16.444Z,200
2016-08-02T06:55:16.426Z,200
2016-08-02T06:56:16.453Z,195
2016-08-02T06:57:31.404Z,175
2016-08-02T06:58:16.507Z,150
2016-08-02T07:00:31.503Z,110
2016-08-02T07:01:16.593Z,100
2016-08-02T07:02:16.639Z,95
2016-08-02T07:03:31.589Z,90
2016-08-02T07:04:31.617Z,90
2016-08-02T07:05:31.643Z,85
2016-08-02T07:06:16.752Z,85
2016-08-02T07:07:16.784Z,80
2016-08-02T07:08:31.734Z,75
2016-08-02T07:09:31.781Z,75
2016-08-02T07:10:16.850Z,70
2016-08-02T07:11:31.816Z,70
2016-08-02T07:12:16.931Z,70
2016-08-02T07:13:16.949Z,65
2016-08-02T07:14:16.980Z,65
2016-08-02T07:15:17.004Z,65
2016-08-02T07:16:17.037Z,60
2016-08-02T07:18:32.014Z,60
2016-08-02T07:19:17.117Z,60
2016-08-02T07:20:32.080Z,60
2016-08-02T07:21:17.179Z,60
2016-08-02T07:22:32.124Z,60
2016-08-02T07:23:32.159Z,60
2016-08-02T07:24:17.260Z,55
2016-08-02T07:25:17.289Z,55
2016-08-02T07:26:17.313Z,55
2016-08-02T07:27:32.271Z,55
2016-08-02T07:28:17.376Z,60
2016-08-02T07:29:17.403Z,60
2016-08-02T07:30:17.425Z,60
2016-08-02T07:31:17.458Z,65
2016-08-02T07:32:17.495Z,70
2016-08-02T07:33:17.522Z,70
2016-08-02T07:34:32.468Z,75
2016-08-02T07:35:17.572Z,80
2016-08-02T07:37:17.618Z,95
2016-08-02T07:38:17.653Z,100
2016-08-02T07:39:17.693Z,100
2016-08-02T07:40:17.714Z,100
2016-08-02T07:41:17.740Z,100
2016-08-02T07:42:17.764Z,95
2016-08-02T07:43:17.789Z,95
2016-08-02T07:44:17.827Z,90
2016-08-02T07:45:17.869Z,95
2016-08-02T07:46:32.807Z,95
2016-08-02T07:47:17.916Z,95
2016-08-02T07:49:32.889Z,100
2016-08-02T07:51:32.990Z,100
2016-08-02T07:52:32.967Z,105
2016-08-02T07:53:32.998Z,105
2016-08-02T07:54:18.095Z,110
2016-08-02T07:55:18.127Z,115
2016-08-02T07:56:18.157Z,120
2016-08-02T07:57:33.110Z,120
2016-08-02T07:58:18.211Z,120
2016-08-02T07:59:33.171Z,120
2016-08-02T08:00:18.423Z,120
2016-08-02T08:01:33.217Z,120
2016-08-02T08:03:18.350Z,115
2016-08-02T08:04:33.993Z,110
2016-08-02T08:05:18.407Z,110
2016-08-02T08:06:18.440Z,110
2016-08-02T08:07:18.464Z,105
2016-08-02T08:08:33.415Z,105
2016-08-02T08:09:18.524Z,105
2016-08-02T08:10:18.551Z,105
2016-08-02T08:11:18.576Z,110
2016-08-02T08:12:18.606Z,110
2016-08-02T08:13:18.646Z,115
2016-08-02T08:14:18.661Z,115
2016-08-02T08:15:33.606Z,115
2016-08-02T08:16:18.718Z,115
2016-08-02T08:17:18.739Z,110
2016-08-02T08:18:18.764Z,105
2016-08-02T08:19:33.733Z,100
2016-08-02T08:20:18.828Z,100
2016-08-02T08:21:33.776Z,100
2016-08-02T08:22:18.875Z,95
2016-08-02T08:23:48.756Z,95
2016-08-02T08:24:33.859Z,95
2016-08-02T08:25:18.971Z,95
2016-08-02T08:26:19.008Z,95
2016-08-02T08:27:19.029Z,95
2016-08-02T08:28:19.062Z,90
2016-08-02T08:29:19.079Z,90
2016-08-02T08:30:19.122Z,85
2016-08-02T08:31:19.135Z,90
2016-08-02T08:32:19.178Z,90
2016-08-02T08:33:19.180Z,95
2016-08-02T08:34:19.206Z,100
2016-08-02T08:36:19.978Z,100
2016-08-02T08:37:19.297Z,100
2016-08-02T08:38:19.332Z,105
2016-08-02T08:39:19.359Z,110
2016-08-02T08:40:49.225Z,120
2016-08-02T08:41:19.406Z,120
2016-08-02T08:42:34.361Z,130
2016-08-02T08:43:19.463Z,130
2016-08-02T08:44:19.489Z,135
2016-08-02T08:45:34.439Z,135
2016-08-02T08:46:20.229Z,135
2016-08-02T08:47:19.570Z,135
2016-08-02T08:48:19.610Z,135
2016-08-02T08:49:19.626Z,135
2016-08-02T08:50:35.269Z,135
2016-08-02T08:51:34.614Z,130
2016-08-02T08:52:19.705Z,125
2016-08-02T08:53:20.835Z,125
2016-08-02T08:54:19.774Z,125
2016-08-02T08:55:34.717Z,125
2016-08-02T08:56:19.814Z,130
2016-08-02T08:57:19.844Z,135
2016-08-02T08:58:19.877Z,140
2016-08-02T08:59:19.900Z,145
2016-08-02T09:00:20.989Z,155
2016-08-02T09:01:19.955Z,155
2016-08-02T09:02:19.986Z,160
2016-08-02T09:03:20.008Z,160
2016-08-02T09:04:20.032Z,160
2016-08-02T09:05:34.989Z,160
2016-08-02T09:06:49.948Z,160
2016-08-02T09:07:35.048Z,160
2016-08-02T09:08:20.856Z,160
2016-08-02T09:09:20.182Z,165
2016-08-02T09:10:35.957Z,175
2016-08-02T09:11:20.233Z,180
2016-08-02T09:12:20.276Z,185
2016-08-02T09:13:20.286Z,190
2016-08-02T09:14:20.315Z,190
2016-08-02T09:15:21.042Z,190
2016-08-02T09:16:21.075Z,185
2016-08-02T09:17:35.324Z,180
2016-08-02T09:18:20.428Z,175
2016-08-02T09:19:20.458Z,175
2016-08-02T09:20:20.489Z,170
2016-08-02T09:21:20.519Z,165
2016-08-02T09:22:20.545Z,165
2016-08-02T09:23:35.500Z,165
2016-08-02T09:24:20.599Z,165
2016-08-02T09:26:20.650Z,160
2016-08-02T09:27:35.596Z,160
2016-08-02T09:28:35.636Z,155
2016-08-02T09:29:20.732Z,150
2016-08-02T09:30:20.762Z,150
2016-08-02T09:31:20.798Z,145
2016-08-02T09:32:21.539Z,140
2016-08-02T09:33:20.848Z,140
2016-08-02T09:34:20.879Z,140
2016-08-02T09:35:20.892Z,140
2016-08-02T09:36:20.929Z,140
2016-08-02T09:37:35.888Z,135
2016-08-02T09:38:20.988Z,135
2016-08-02T09:39:35.937Z,135
2016-08-02T09:41:21.081Z,125
2016-08-02T09:42:21.095Z,120
2016-08-02T09:43:36.057Z,115
2016-08-02T09:44:21.163Z,110
2016-08-02T09:45:21.187Z,105
2016-08-02T09:46:21.210Z,110
2016-08-02T09:47:21.236Z,110
2016-08-02T09:48:21.264Z,115
2016-08-02T09:49:36.227Z,125
2016-08-02T09:50:21.329Z,130
2016-08-02T09:53:21.412Z,160
2016-08-02T09:54:21.442Z,170
2016-08-02T09:56:36.411Z,180
2016-08-02T09:57:21.522Z,180
2016-08-02T09:58:36.466Z,175
2016-08-02T09:59:36.497Z,175
2016-08-02T10:00:21.603Z,170
2016-08-02T10:01:21.627Z,165
2016-08-02T10:02:21.649Z,165
2016-08-02T10:03:21.740Z,160
2016-08-02T10:04:21.955Z,155
2016-08-02T10:05:21.747Z,150
2016-08-02T10:06:36.721Z,150
2016-08-02T10:07:36.720Z,150
2016-08-02T10:08:21.823Z,150
2016-08-02T10:09:21.855Z,145
2016-08-02T10:11:51.762Z,140
2016-08-02T10:12:21.938Z,140
2016-08-02T10:13:21.974Z,130
2016-08-02T10:14:21.995Z,125
2016-08-02T10:15:36.959Z,125
2016-08-02T10:16:22.057Z,130
2016-08-02T10:17:22.788Z,125
2016-08-02T10:18:22.103Z,120
2016-08-02T10:19:22.137Z,115
2016-08-02T10:20:37.794Z,110
2016-08-02T10:21:22.196Z,105
2016-08-02T10:22:22.214Z,105
2016-08-02T10:23:22.250Z,105
2016-08-02T10:24:22.278Z,110
2016-08-02T10:26:22.335Z,115
2016-08-02T10:27:37.287Z,115
2016-08-02T10:28:37.313Z,120
2016-08-02T10:29:22.422Z,115
2016-08-02T10:30:37.369Z,115
2016-08-02T10:31:22.469Z,120
2016-08-02T10:32:22.501Z,125
2016-08-02T10:33:22.527Z,130
2016-08-02T10:34:22.558Z,130
2016-08-02T10:35:23.281Z,130
2016-08-02T10:36:22.614Z,135
2016-08-02T10:37:22.652Z,130
2016-08-02T10:38:22.683Z,130
2016-08-02T10:39:22.691Z,130
2016-08-02T10:41:22.757Z,130
2016-08-02T10:42:38.396Z,135
2016-08-02T10:43:37.735Z,135
2016-08-02T10:44:22.842Z,135
2016-08-02T10:45:22.863Z,140
2016-08-02T10:46:22.891Z,145
2016-08-02T10:47:23.606Z,150
2016-08-02T10:48:22.939Z,150
2016-08-02T10:49:22.979Z,150
2016-08-02T10:50:23.010Z,150
2016-08-02T10:51:23.031Z,155
2016-08-02T10:53:23.084Z,160
2016-08-02T10:54:23.114Z,170
2016-08-02T10:56:23.166Z,190
2016-08-02T10:57:23.203Z,195
2016-08-02T10:58:23.228Z,200
2016-08-02T10:59:23.254Z,215
2016-08-02T11:00:38.202Z,230
2016-08-02T11:01:23.318Z,235
2016-08-02T11:02:39.330Z,240
2016-08-02T11:03:23.425Z,235
2016-08-02T11:04:23.404Z,225
2016-08-02T11:05:38.350Z,215
2016-08-02T11:07:23.479Z,195
2016-08-02T11:08:38.433Z,195
2016-08-02T11:09:24.242Z,195
2016-08-02T11:11:23.600Z,185
2016-08-02T11:12:23.623Z,175
2016-08-02T11:13:23.652Z,175
2016-08-02T11:14:23.676Z,180
2016-08-02T11:15:38.628Z,180
2016-08-02T11:16:39.358Z,180
2016-08-02T11:17:38.695Z,165
2016-08-02T11:18:38.715Z,155
2016-08-02T11:19:24.528Z,150
2016-08-02T11:20:23.856Z,150
2016-08-02T11:21:23.876Z,150
2016-08-02T11:22:23.911Z,150
2016-08-02T11:23:23.930Z,150
2016-08-02T11:24:23.968Z,145
2016-08-02T11:25:23.988Z,140
2016-08-02T11:26:24.076Z,130
2016-08-02T11:27:38.977Z,125
2016-08-02T11:28:24.084Z,130
2016-08-02T11:29:39.029Z,135
2016-08-02T11:30:39.064Z,140
2016-08-02T11:31:24.161Z,140
2016-08-02T11:32:24.196Z,140
2016-08-02T11:33:24.219Z,135
2016-08-02T11:34:54.094Z,130
2016-08-02T11:35:24.275Z,130
2016-08-02T11:36:39.231Z,135
2016-08-02T11:38:24.359Z,145
2016-08-02T11:39:24.383Z,150
2016-08-02T11:40:25.116Z,140
2016-08-02T11:41:24.448Z,135
2016-08-02T11:42:24.482Z,125
2016-08-02T11:43:24.497Z,115
2016-08-02T11:44:24.542Z,110
2016-08-02T11:45:24.573Z,105
2016-08-02T11:46:24.589Z,105
2016-08-02T11:47:24.611Z,105
2016-08-02T11:48:24.636Z,100
2016-08-02T11:49:24.674Z,95
2016-08-02T11:50:39.629Z,95
2016-08-02T11:52:24.765Z,100
2016-08-02T11:53:24.782Z,100
2016-08-02T11:54:24.822Z,100
2016-08-02T11:55:24.831Z,95
2016-08-02T11:56:24.861Z,90
2016-08-02T11:57:24.898Z,85
2016-08-02T11:58:24.932Z,85
2016-08-02T11:59:24.952Z,80
2016-08-02T12:00:24.991Z,75
2016-08-02T12:01:39.932Z,70
2016-08-02T12:02:25.044Z,70
2016-08-02T12:03:25.074Z,75
2016-08-02T12:04:25.092Z,75
2016-08-02T12:06:25.165Z,75
2016-08-02T12:07:55.034Z,70
2016-08-02T12:08:25.206Z,75
2016-08-02T12:09:25.250Z,70
2016-08-02T12:10:25.273Z,70
2016-08-02T12:11:40.212Z,70
2016-08-02T12:12:40.290Z,75
2016-08-02T12:13:40.264Z,75
2016-08-02T12:14:25.377Z,75
2016-08-02T12:15:25.391Z,75
2016-08-02T12:16:40.349Z,75
2016-08-02T12:17:40.375Z,75
2016-08-02T12:18:40.407Z,80
2016-08-02T12:19:25.521Z,80
2016-08-02T12:20:26.242Z,80
2016-08-02T12:21:40.477Z,80
2016-08-02T12:22:40.513Z,80
2016-08-02T12:23:25.624Z,80
2016-08-02T12:24:26.350Z,80
2016-08-02T12:25:25.682Z,80
2016-08-02T12:26:25.710Z,80
2016-08-02T12:27:25.739Z,80
2016-08-02T12:28:25.761Z,80
2016-08-02T12:29:25.791Z,80
2016-08-02T12:31:25.836Z,85
2016-08-02T12:32:25.881Z,90
2016-08-02T12:33:40.829Z,105
2016-08-02T12:34:25.941Z,110
2016-08-02T12:35:25.961Z,115
2016-08-02T12:36:25.972Z,115
2016-08-02T12:37:40.925Z,120
2016-08-02T12:38:26.032Z,120
2016-08-02T12:39:26.063Z,125
2016-08-02T12:40:26.086Z,125
2016-08-02T12:41:26.115Z,125
2016-08-02T12:42:26.833Z,125
2016-08-02T12:44:26.192Z,125
2016-08-02T12:45:26.230Z,125
2016-08-02T12:46:26.254Z,125
2016-08-02T12:47:41.202Z,120
2016-08-02T12:48:26.998Z,115
2016-08-02T12:49:27.082Z,110
2016-08-02T12:50:26.368Z,110
2016-08-02T12:51:26.386Z,105
2016-08-02T12:52:26.409Z,100
2016-08-02T12:53:41.371Z,90
2016-08-02T12:54:41.404Z,80
2016-08-02T12:55:26.497Z,75
2016-08-02T12:56:26.538Z,60
2016-08-02T12:57:26.553Z,55
2016-08-02T12:58:26.594Z,50
2016-08-02T12:59:41.535Z,45
2016-08-02T13:00:26.646Z,45
2016-08-02T13:01:26.671Z,50
2016-08-02T13:03:41.662Z,60
2016-08-02T13:04:26.745Z,65
2016-08-02T13:06:41.718Z,75
2016-08-02T13:07:26.831Z,75
2016-08-02T13:08:26.851Z,75
2016-08-02T13:09:41.802Z,80
2016-08-02T13:10:27.268Z,90
2016-08-02T13:11:27.641Z,95
2016-08-02T13:12:27.207Z,95
2016-08-02T13:13:27.705Z,85
2016-08-02T13:14:27.013Z,80
2016-08-02T13:15:27.062Z,75
2016-08-02T13:16:27.077Z,75
2016-08-02T13:17:27.113Z,70
2016-08-02T13:18:27.127Z,70
2016-08-02T13:19:42.777Z,70
2016-08-02T13:20:27.424Z,65
2016-08-02T13:21:27.200Z,60
2016-08-02T13:22:27.237Z,60
2016-08-02T13:23:27.274Z,55
2016-08-02T13:24:27.284Z,50
2016-08-02T13:25:57.164Z,40
2016-08-02T13:26:28.185Z,35
2016-08-02T13:27:27.365Z,35
2016-08-02T13:28:27.390Z,35
2016-08-02T13:29:42.352Z,35
2016-08-02T13:30:27.455Z,40
2016-08-02T13:31:42.419Z,45
2016-08-02T13:32:27.519Z,45
2016-08-02T13:33:42.459Z,50
2016-08-02T13:34:27.570Z,50
2016-08-02T13:35:27.586Z,50
2016-08-02T13:36:57.466Z,55
2016-08-02T13:37:27.654Z,60
2016-08-02T13:38:42.600Z,70
2016-08-02T13:39:27.701Z,75
2016-08-02T13:40:42.641Z,85
2016-08-02T13:42:27.780Z,90
2016-08-02T13:43:27.797Z,95
2016-08-02T13:44:27.828Z,95
2016-08-02T13:45:27.857Z,95
2016-08-02T13:46:27.881Z,95
2016-08-02T13:47:27.906Z,90
2016-08-02T13:48:27.942Z,85
2016-08-02T13:49:27.958Z,75
2016-08-02T13:50:28.000Z,70
2016-08-02T13:51:42.931Z,60
2016-08-02T13:52:42.957Z,55
2016-08-02T13:53:42.992Z,55
2016-08-02T13:54:28.092Z,60
2016-08-02T13:55:28.815Z,65
2016-08-02T13:56:29.809Z,75
2016-08-02T13:57:28.171Z,85
2016-08-02T13:58:28.220Z,95
2016-08-02T13:59:28.234Z,100
2016-08-02T14:00:28.964Z,110
2016-08-02T14:01:28.281Z,115
2016-08-02T14:02:28.302Z,125
2016-08-02T14:03:28.354Z,130
2016-08-02T14:04:28.368Z,135
2016-08-02T14:05:43.317Z,135
2016-08-02T14:06:28.415Z,135
2016-08-02T14:07:28.456Z,130
2016-08-02T14:08:29.160Z,130
2016-08-02T14:09:28.506Z,120
2016-08-02T14:10:28.529Z,120
2016-08-02T14:11:30.204Z,120
2016-08-02T14:12:43.564Z,120
2016-08-02T14:13:28.608Z,125
2016-08-02T14:14:28.631Z,130
2016-08-02T14:15:28.646Z,140
2016-08-02T14:16:28.687Z,150
2016-08-02T14:17:28.715Z,165
2016-08-02T14:18:28.734Z,170
2016-08-02T14:20:28.797Z,170
2016-08-02T14:21:28.823Z,170
2016-08-02T14:22:28.854Z,165
2016-08-02T14:23:43.823Z,170
2016-08-02T14:25:43.854Z,170
2016-08-02T14:26:45.530Z,165
2016-08-02T14:27:28.980Z,165
2016-08-02T14:28:43.931Z,165
2016-08-02T14:29:29.040Z,170
2016-08-02T14:30:29.058Z,175
2016-08-02T14:31:29.105Z,180
2016-08-02T14:32:29.127Z,195
2016-08-02T14:33:29.147Z,195
2016-08-02T14:34:29.176Z,190
2016-08-02T14:35:29.197Z,185
2016-08-02T14:36:29.230Z,200
2016-08-02T14:37:29.253Z,210
2016-08-02T14:38:29.291Z,205
2016-08-02T14:39:29.309Z,200
2016-08-02T14:40:29.338Z,195
2016-08-02T14:41:31.035Z,190
2016-08-02T14:42:29.392Z,180
2016-08-02T14:43:44.345Z,170
2016-08-02T14:44:44.380Z,165
2016-08-02T14:45:29.492Z,165
2016-08-02T14:46:29.500Z,160
2016-08-02T14:47:29.540Z,155
2016-08-02T14:48:29.571Z,150
2016-08-02T14:49:29.588Z,145
2016-08-02T14:50:44.541Z,145
2016-08-02T14:51:29.643Z,145
2016-08-02T14:52:29.668Z,145
2016-08-02T14:53:29.689Z,150
2016-08-02T14:54:29.730Z,160
2016-08-02T14:55:29.761Z,160
2016-08-02T14:57:29.822Z,165
2016-08-02T14:59:29.864Z,165